Time,TemperatureF,DewpointF,PressureIn,WindDirection,WindDirectionDegrees,WindSpeedMPH,WindSpeedGustMPH,Humidity,HourlyPrecipIn,Conditions,Clouds,dailyrainin,SoftwareType,DateUTC
2013-06-14 00:02:00,64.0,46.0,-100.00,North,354,4.0,5.0,52,-99.99,,,-99.99,,2013-06-14 07:02:00,
2013-06-14 00:12:00,64.0,46.0,-100.00,North,354,4.0,5.0,52,-99.99,,,-99.99,,2013-06-14 07:12:00,
2013-06-14 00:22:00,65.0,46.0,-100.00,NNW,342,5.0,8.0,50,-99.99,,,-99.99,,2013-06-14 07:22:00,
2013-06-14 00:33:00,65.0,44.0,-100.00,NNW,342,5.0,8.0,47,-99.99,,,-99.99,,2013-06-14 07:33:00,
2013-06-14 00:43:00,63.0,45.0,-100.00,North,359,4.0,6.0,51,-99.99,,,-99.99,,2013-06-14 07:43:00,
2013-06-14 00:53:00,63.0,45.0,-100.00,North,359,4.0,6.0,51,-99.99,,,-99.99,,2013-06-14 07:53:00,
2013-06-14 01:02:00,64.0,46.0,-100.00,North,358,4.0,6.0,52,-99.99,,,-99.99,,2013-06-14 08:02:00,
2013-06-14 01:12:00,63.0,47.0,-100.00,North,353,4.0,6.0,55,-99.99,,,-99.99,,2013-06-14 08:12:00,
2013-06-14 01:22:00,62.0,48.0,-100.00,North,360,3.0,6.0,61,-99.99,,,-99.99,,2013-06-14 08:22:00,
2013-06-14 01:33:00,63.0,49.0,-100.00,North,4,2.0,4.0,60,-99.99,,,-99.99,,2013-06-14 08:33:00,
2013-06-14 01:43:00,63.0,48.0,-100.00,North,10,2.0,5.0,58,-99.99,,,-99.99,,2013-06-14 08:43:00,
2013-06-14 01:53:00,63.0,48.0,-100.00,North,10,2.0,5.0,58,-99.99,,,-99.99,,2013-06-14 08:53:00,
2013-06-14 02:01:00,63.0,47.0,-100.00,North,359,2.0,3.0,55,-99.99,,,-99.99,,2013-06-14 09:01:00,
2013-06-14 02:11:00,63.0,47.0,-100.00,North,359,2.0,3.0,55,-99.99,,,-99.99,,2013-06-14 09:11:00,
2013-06-14 02:22:00,63.0,46.0,-100.00,North,5,2.0,4.0,53,-99.99,,,-99.99,,2013-06-14 09:22:00,
2013-06-14 02:33:00,64.0,44.0,-100.00,North,9,2.0,5.0,49,-99.99,,,-99.99,,2013-06-14 09:33:00,
2013-06-14 02:43:00,65.0,39.0,-100.00,North,9,3.0,4.0,39,-99.99,,,-99.99,,2013-06-14 09:43:00,
2013-06-14 02:52:00,65.0,39.0,-100.00,North,9,3.0,4.0,39,-99.99,,,-99.99,,2013-06-14 09:52:00,
2013-06-14 04:02:00,66.0,19.0,-100.00,NNE,12,2.0,4.0,16,-99.99,,,-99.99,,2013-06-14 11:02:00,
2013-06-14 05:01:00,67.0,9.0,-100.00,North,2,1.0,3.0,10,-99.99,,,-99.99,,2013-06-14 12:01:00,
2013-06-14 06:22:00,66.0,8.0,-100.00,NNE,17,2.0,5.0,10,-99.99,,,-99.99,,2013-06-14 13:22:00,
2013-06-14 06:33:00,66.0,8.0,-100.00,NNE,17,2.0,5.0,10,-99.99,,,-99.99,,2013-06-14 13:33:00,
2013-06-14 06:43:00,67.0,9.0,-100.00,North,11,3.0,5.0,10,-99.99,,,-99.99,,2013-06-14 13:43:00,
2013-06-14 07:22:00,71.0,9.0,-100.00,NE,36,1.0,3.0,9,-99.99,,,-99.99,,2013-06-14 14:22:00,
2013-06-14 07:43:00,72.0,10.0,-100.00,East,83,1.0,3.0,9,-99.99,,,-99.99,,2013-06-14 14:43:00,
2013-06-14 08:01:00,71.0,12.0,-100.00,NE,51,1.0,4.0,10,-99.99,,,-99.99,,2013-06-14 15:01:00,
2013-06-14 08:11:00,72.0,10.0,-100.00,NE,56,1.0,2.0,9,-99.99,,,-99.99,,2013-06-14 15:11:00,
2013-06-14 08:22:00,73.0,11.0,-100.00,ENE,76,1.0,2.0,9,-99.99,,,-99.99,,2013-06-14 15:22:00,
2013-06-14 08:33:00,74.0,14.0,-100.00,NE,55,2.0,4.0,10,-99.99,,,-99.99,,2013-06-14 15:33:00,
2013-06-14 08:43:00,75.0,17.0,-100.00,East,86,2.0,4.0,11,-99.99,,,-99.99,,2013-06-14 15:43:00,
2013-06-14 08:52:00,75.0,17.0,-100.00,East,86,2.0,4.0,11,-99.99,,,-99.99,,2013-06-14 15:52:00,
2013-06-14 09:01:00,75.0,15.0,-100.00,East,92,2.0,5.0,10,-99.99,,,-99.99,,2013-06-14 16:01:00,
2013-06-14 09:11:00,76.0,10.0,-100.00,SE,129,3.0,6.0,8,-99.99,,,-99.99,,2013-06-14 16:11:00,
2013-06-14 09:22:00,77.0,14.0,-100.00,South,171,4.0,6.0,9,-99.99,,,-99.99,,2013-06-14 16:22:00,
2013-06-14 09:32:00,77.0,16.0,-100.00,South,170,4.0,7.0,10,-99.99,,,-99.99,,2013-06-14 16:32:00,
2013-06-14 09:43:00,78.0,21.0,-100.00,South,179,5.0,8.0,12,-99.99,,,-99.99,,2013-06-14 16:43:00,
2013-06-14 09:52:00,78.0,21.0,-100.00,South,179,5.0,8.0,12,-99.99,,,-99.99,,2013-06-14 16:52:00,
2013-06-14 10:02:00,78.0,17.0,-100.00,South,188,5.0,9.0,10,-99.99,,,-99.99,,2013-06-14 17:02:00,
2013-06-14 10:11:00,79.0,15.0,-100.00,South,175,4.0,8.0,9,-99.99,,,-99.99,,2013-06-14 17:11:00,
2013-06-14 10:22:00,79.0,26.0,-100.00,South,190,5.0,11.0,14,-99.99,,,-99.99,,2013-06-14 17:22:00,
2013-06-14 10:34:00,80.0,27.0,-100.00,SSW,202,4.0,9.0,14,-99.99,,,-99.99,,2013-06-14 17:34:00,
2013-06-14 10:43:00,80.0,27.0,-100.00,SSW,197,4.0,10.0,14,-99.99,,,-99.99,,2013-06-14 17:43:00,
2013-06-14 10:53:00,80.0,27.0,-100.00,SSW,197,4.0,10.0,14,-99.99,,,-99.99,,2013-06-14 17:53:00,
2013-06-14 11:02:00,80.0,31.0,-100.00,SSW,194,5.0,10.0,17,-99.99,,,-99.99,,2013-06-14 18:02:00,
2013-06-14 11:21:00,79.0,38.0,-100.00,SSW,207,5.0,11.0,23,-99.99,,,-99.99,,2013-06-14 18:21:00,
2013-06-14 11:32:00,79.0,38.0,-100.00,SSW,207,5.0,11.0,23,-99.99,,,-99.99,,2013-06-14 18:32:00,
2013-06-14 11:42:00,78.0,37.0,-100.00,SSW,212,5.0,10.0,23,-99.99,,,-99.99,,2013-06-14 18:42:00,
2013-06-14 11:52:00,78.0,37.0,-100.00,SSW,212,5.0,10.0,23,-99.99,,,-99.99,,2013-06-14 18:52:00,
2013-06-14 12:01:00,78.0,35.0,-100.00,SW,226,5.0,11.0,21,-99.99,,,-99.99,,2013-06-14 19:01:00,
2013-06-14 12:43:00,78.0,43.0,-100.00,SW,221,5.0,12.0,29,-99.99,,,-99.99,,2013-06-14 19:43:00,
2013-06-14 12:53:00,78.0,43.0,-100.00,SW,221,5.0,12.0,29,-99.99,,,-99.99,,2013-06-14 19:53:00,
2013-06-14 13:11:00,78.0,42.0,-100.00,SW,234,5.0,12.0,28,-99.99,,,-99.99,,2013-06-14 20:11:00,
2013-06-14 13:21:00,78.0,41.0,-100.00,SSW,213,4.0,11.0,27,-99.99,,,-99.99,,2013-06-14 20:21:00,
2013-06-14 13:33:00,77.0,40.0,-100.00,SW,215,6.0,12.0,27,-99.99,,,-99.99,,2013-06-14 20:33:00,
2013-06-14 13:43:00,79.0,41.0,-100.00,SSW,207,4.0,9.0,26,-99.99,,,-99.99,,2013-06-14 20:43:00,
2013-06-14 13:53:00,79.0,41.0,-100.00,SSW,207,4.0,9.0,26,-99.99,,,-99.99,,2013-06-14 20:53:00,
2013-06-14 14:01:00,78.0,42.0,-100.00,SW,222,4.0,9.0,28,-99.99,,,-99.99,,2013-06-14 21:01:00,
2013-06-14 14:11:00,78.0,43.0,-100.00,SW,228,4.0,9.0,29,-99.99,,,-99.99,,2013-06-14 21:11:00,
2013-06-14 14:22:00,78.0,43.0,-100.00,SW,214,5.0,11.0,29,-99.99,,,-99.99,,2013-06-14 21:22:00,
2013-06-14 14:34:00,78.0,43.0,-100.00,SW,214,5.0,11.0,29,-99.99,,,-99.99,,2013-06-14 21:34:00,
2013-06-14 14:42:00,78.0,43.0,-100.00,SW,230,4.0,9.0,29,-99.99,,,-99.99,,2013-06-14 21:42:00,
2013-06-14 14:52:00,78.0,43.0,-100.00,SW,228,3.0,11.0,29,-99.99,,,-99.99,,2013-06-14 21:52:00,
2013-06-14 15:01:00,78.0,42.0,-100.00,West,263,3.0,9.0,28,-99.99,,,-99.99,,2013-06-14 22:01:00,
2013-06-14 15:11:00,78.0,42.0,-100.00,West,263,3.0,9.0,28,-99.99,,,-99.99,,2013-06-14 22:11:00,
2013-06-14 15:22:00,78.0,42.0,-100.00,West,271,2.0,8.0,28,-99.99,,,-99.99,,2013-06-14 22:22:00,
2013-06-14 15:33:00,78.0,45.0,-100.00,West,277,3.0,10.0,31,-99.99,,,-99.99,,2013-06-14 22:33:00,
2013-06-14 15:43:00,77.0,44.0,-100.00,West,265,3.0,8.0,31,-99.99,,,-99.99,,2013-06-14 22:43:00,
2013-06-14 15:52:00,77.0,44.0,-100.00,West,265,3.0,8.0,31,-99.99,,,-99.99,,2013-06-14 22:52:00,
2013-06-14 16:01:00,77.0,42.0,-100.00,North,360,2.0,5.0,29,-99.99,,,-99.99,,2013-06-14 23:01:00,
2013-06-14 16:11:00,77.0,44.0,-100.00,West,268,4.0,11.0,31,-99.99,,,-99.99,,2013-06-14 23:11:00,
2013-06-14 16:22:00,76.0,43.0,-100.00,West,281,4.0,9.0,31,-99.99,,,-99.99,,2013-06-14 23:22:00,
2013-06-14 16:33:00,77.0,42.0,-100.00,WNW,288,2.0,6.0,29,-99.99,,,-99.99,,2013-06-14 23:33:00,
2013-06-14 16:43:00,77.0,41.0,-100.00,WNW,286,3.0,8.0,28,-99.99,,,-99.99,,2013-06-14 23:43:00,
2013-06-14 16:52:00,77.0,41.0,-100.00,WNW,286,3.0,8.0,28,-99.99,,,-99.99,,2013-06-14 23:52:00,
2013-06-14 17:01:00,77.0,40.0,-100.00,WNW,285,3.0,8.0,27,-99.99,,,-99.99,,2013-06-15 00:01:00,
2013-06-14 17:11:00,76.0,41.0,-100.00,WNW,301,2.0,7.0,28,-99.99,,,-99.99,,2013-06-15 00:11:00,
2013-06-14 17:22:00,76.0,41.0,-100.00,NW,306,2.0,6.0,28,-99.99,,,-99.99,,2013-06-15 00:22:00,
2013-06-14 17:33:00,76.0,41.0,-100.00,NW,306,2.0,6.0,28,-99.99,,,-99.99,,2013-06-15 00:33:00,
2013-06-14 17:43:00,76.0,41.0,-100.00,NW,306,2.0,6.0,28,-99.99,,,-99.99,,2013-06-15 00:43:00,
2013-06-14 17:52:00,76.0,41.0,-100.00,NW,306,2.0,6.0,28,-99.99,,,-99.99,,2013-06-15 00:52:00,
2013-06-14 18:01:00,75.0,41.0,-100.00,WNW,292,2.0,6.0,30,-99.99,,,-99.99,,2013-06-15 01:01:00,
2013-06-14 18:11:00,75.0,41.0,-100.00,NW,312,2.0,4.0,30,-99.99,,,-99.99,,2013-06-15 01:11:00,
2013-06-14 18:22:00,75.0,41.0,-100.00,NW,312,2.0,4.0,30,-99.99,,,-99.99,,2013-06-15 01:22:00,
2013-06-14 18:33:00,74.0,41.0,-100.00,NW,326,3.0,7.0,30,-99.99,,,-99.99,,2013-06-15 01:33:00,
2013-06-14 18:42:00,72.0,41.0,-100.00,NNW,335,3.0,8.0,32,-99.99,,,-99.99,,2013-06-15 01:42:00,
2013-06-14 18:54:00,72.0,42.0,-100.00,NNW,333,4.0,6.0,34,-99.99,,,-99.99,,2013-06-15 01:54:00,
2013-06-14 19:02:00,70.0,43.0,-100.00,NNW,331,4.0,6.0,38,-99.99,,,-99.99,,2013-06-15 02:02:00,
2013-06-14 19:11:00,70.0,43.0,-100.00,NNW,331,4.0,6.0,38,-99.99,,,-99.99,,2013-06-15 02:11:00,
2013-06-14 19:22:00,69.0,44.0,-100.00,NW,325,4.0,6.0,41,-99.99,,,-99.99,,2013-06-15 02:22:00,
2013-06-14 19:33:00,69.0,46.0,-100.00,NNW,330,4.0,6.0,43,-99.99,,,-99.99,,2013-06-15 02:33:00,
2013-06-14 19:43:00,67.0,46.0,-100.00,NNW,328,4.0,7.0,47,-99.99,,,-99.99,,2013-06-15 02:43:00,
2013-06-14 19:53:00,66.0,46.0,-100.00,NNW,330,5.0,7.0,49,-99.99,,,-99.99,,2013-06-15 02:53:00,
2013-06-14 20:01:00,67.0,41.0,-100.00,NNW,332,3.0,7.0,39,-99.99,,,-99.99,,2013-06-15 03:01:00,
2013-06-14 20:11:00,67.0,41.0,-100.00,NNW,332,3.0,7.0,39,-99.99,,,-99.99,,2013-06-15 03:11:00,
2013-06-14 20:23:00,68.0,40.0,-100.00,North,5,1.0,1.0,36,-99.99,,,-99.99,,2013-06-15 03:23:00,
2013-06-14 20:32:00,68.0,40.0,-100.00,North,5,1.0,1.0,36,-99.99,,,-99.99,,2013-06-15 03:32:00,
2013-06-14 20:43:00,67.0,44.0,-100.00,NE,42,0.0,1.0,43,-99.99,,,-99.99,,2013-06-15 03:43:00,
2013-06-14 20:52:00,67.0,44.0,-100.00,NE,42,0.0,1.0,43,-99.99,,,-99.99,,2013-06-15 03:52:00,
2013-06-14 21:01:00,66.0,43.0,-100.00,NE,55,0.0,1.0,43,-99.99,,,-99.99,,2013-06-15 04:01:00,
2013-06-14 21:11:00,66.0,43.0,-100.00,NE,55,0.0,1.0,43,-99.99,,,-99.99,,2013-06-15 04:11:00,
2013-06-14 21:22:00,65.0,46.0,-100.00,NE,42,0.0,1.0,51,-99.99,,,-99.99,,2013-06-15 04:22:00,
2013-06-14 21:33:00,65.0,46.0,-100.00,NE,42,0.0,1.0,51,-99.99,,,-99.99,,2013-06-15 04:33:00,
2013-06-14 21:43:00,64.0,47.0,-100.00,North,-999,0.0,0.0,54,-99.99,,,-99.99,,2013-06-15 04:43:00,
2013-06-14 22:12:00,64.0,45.0,-100.00,ESE,107,0.0,2.0,51,-99.99,,,-99.99,,2013-06-15 05:12:00,
2013-06-14 22:22:00,64.0,45.0,-100.00,ESE,107,0.0,2.0,51,-99.99,,,-99.99,,2013-06-15 05:22:00,
2013-06-14 22:42:00,65.0,42.0,-100.00,SSE,166,1.0,2.0,43,-99.99,,,-99.99,,2013-06-15 05:42:00,
2013-06-14 22:52:00,65.0,42.0,-100.00,SSE,166,1.0,2.0,43,-99.99,,,-99.99,,2013-06-15 05:52:00,
2013-06-14 23:24:00,65.0,38.0,-100.00,SSW,207,3.0,4.0,37,-99.99,,,-99.99,,2013-06-15 06:24:00,
2013-06-14 23:33:00,64.0,39.0,-100.00,SSW,213,4.0,5.0,40,-99.99,,,-99.99,,2013-06-15 06:33:00,